createdAt,value
2023-01-13T00:00:50.708Z,98148.31
2023-01-13T00:03:17.276Z,98148.31
2023-01-13T00:05:43.835Z,98144.56
2023-01-13T00:08:10.341Z,98136.03
2023-01-13T00:10:37.010Z,98136.16
2023-01-13T00:13:05.055Z,98135.22
2023-01-13T00:15:32.619Z,98136.03
2023-01-13T00:17:59.437Z,98131.75
2023-01-13T00:20:26.052Z,98123.81
2023-01-13T00:22:52.651Z,98130.72
2023-01-13T00:25:19.224Z,98130.72
2023-01-13T00:27:45.729Z,98124.56
2023-01-13T00:30:12.651Z,98119.50
2023-01-13T00:32:39.287Z,98107.50
2023-01-13T00:35:06.277Z,98120.25
2023-01-13T00:37:35.941Z,98109.19
2023-01-13T00:40:02.620Z,98107.63
2023-01-13T00:42:47.832Z,98109.28
2023-01-13T00:45:14.471Z,98102.28
2023-01-13T00:47:41.098Z,98108.28
2023-01-13T00:50:08.296Z,98099.66
2023-01-13T00:52:34.937Z,98106.75
2023-01-13T00:55:01.518Z,98108.63
2023-01-13T00:57:28.167Z,98101.44
2023-01-13T00:59:54.891Z,98106.50
2023-01-13T01:02:21.526Z,98097.13
2023-01-13T01:04:48.123Z,98106.69
2023-01-13T01:07:14.656Z,98092.72
2023-01-13T01:09:41.209Z,98096.22
2023-01-13T01:12:07.743Z,98090.03
2023-01-13T01:14:34.340Z,98098.81
2023-01-13T01:17:00.873Z,98082.25
2023-01-13T01:19:27.398Z,98094.59
2023-01-13T01:21:55.026Z,98087.50
2023-01-13T01:24:21.796Z,98093.41
2023-01-13T01:26:48.321Z,98089.00
2023-01-13T01:29:15.599Z,98089.84
2023-01-13T01:31:43.179Z,98083.59
2023-01-13T01:34:09.755Z,98080.97
2023-01-13T01:36:36.874Z,98090.69
2023-01-13T01:39:03.998Z,98087.13
2023-01-13T01:41:34.074Z,98083.66
2023-01-13T01:44:03.046Z,98086.19
2023-01-13T01:46:38.496Z,98098.44
2023-01-13T01:49:18.121Z,98095.00
2023-01-13T01:51:57.971Z,98083.78
2023-01-13T01:54:35.461Z,98080.22
2023-01-13T01:57:02.281Z,98074.13
2023-01-13T01:59:32.050Z,98074.97
2023-01-13T02:01:58.997Z,98075.72
2023-01-13T02:04:33.954Z,98074.03
2023-01-13T02:07:02.279Z,98074.97
2023-01-13T02:09:30.087Z,98067.94
2023-01-13T02:12:15.112Z,98064.50
2023-01-13T02:14:42.799Z,98062.63
2023-01-13T02:17:26.115Z,98066.00
2023-01-13T02:19:55.350Z,98056.53
2023-01-13T02:23:05.345Z,98056.34
2023-01-13T02:25:47.116Z,98053.66
2023-01-13T02:29:05.301Z,98035.50
2023-01-13T02:31:42.140Z,98045.03
2023-01-13T02:34:24.563Z,98034.38
2023-01-13T02:37:07.324Z,98036.25
2023-01-13T02:39:41.645Z,98022.28
2023-01-13T02:42:37.436Z,98014.44
2023-01-13T02:45:13.597Z,98015.50
2023-01-13T02:47:44.824Z,98012.75
2023-01-13T02:50:17.554Z,98012.69
2023-01-13T02:52:49.545Z,98011.94
2023-01-13T02:55:21.796Z,98003.88
2023-01-13T02:57:49.650Z,98003.88
2023-01-13T03:00:18.379Z,98004.63
2023-01-13T03:02:45.333Z,98002.84
2023-01-13T03:05:16.391Z,97990.59
2023-01-13T03:08:06.840Z,98001.19
2023-01-13T03:10:36.318Z,97995.75
2023-01-13T03:13:03.185Z,97991.16
2023-01-13T03:15:37.196Z,97980.84
2023-01-13T03:18:33.124Z,97984.13
2023-01-13T03:21:05.311Z,97975.53
2023-01-13T03:23:47.345Z,97974.59
2023-01-13T03:26:45.948Z,97975.25
2023-01-13T03:29:22.032Z,97972.50
2023-01-13T03:32:30.561Z,97966.25
2023-01-13T03:35:04.672Z,97958.38
2023-01-13T03:37:36.141Z,97964.56
2023-01-13T03:40:10.874Z,97946.44
2023-01-13T03:42:40.537Z,97951.66
2023-01-13T03:45:15.675Z,97943.91
2023-01-13T03:47:48.261Z,97947.38
2023-01-13T03:50:23.348Z,97941.19
2023-01-13T03:52:55.567Z,97920.25
2023-01-13T03:55:31.653Z,97947.38
2023-01-13T03:58:06.917Z,97917.69
2023-01-13T04:00:40.349Z,97922.94
2023-01-13T04:03:13.499Z,97922.13
2023-01-13T04:05:45.210Z,97918.72
2023-01-13T04:08:31.141Z,97924.75
2023-01-13T04:11:06.563Z,97925.69
2023-01-13T04:13:39.328Z,97920.53
2023-01-13T04:16:08.075Z,97916.97
2023-01-13T04:18:38.239Z,97923.06
2023-01-13T04:21:06.405Z,97913.59
2023-01-13T04:23:33.268Z,97917.91
2023-01-13T04:25:59.839Z,97907.44
2023-01-13T04:28:26.817Z,97911.00
2023-01-13T04:30:53.518Z,97902.19
2023-01-13T04:33:20.952Z,97902.09
2023-01-13T04:35:48.052Z,97897.78
2023-01-13T04:38:17.294Z,97907.34
2023-01-13T04:40:44.445Z,97969.06
2023-01-13T04:43:11.203Z,97996.56
2023-01-13T04:45:38.310Z,97967.44
2023-01-13T04:48:05.170Z,97991.56
2023-01-13T04:50:31.780Z,97986.78
2023-01-13T04:52:58.401Z,97988.56
2023-01-13T04:55:25.326Z,97993.22
2023-01-13T04:57:52.862Z,98010.13
2023-01-13T05:00:22.016Z,98015.38
2023-01-13T05:02:51.808Z,98020.78
2023-01-13T05:05:18.783Z,98020.31
2023-01-13T05:07:45.564Z,98013.47
2023-01-13T05:10:12.844Z,98011.13
2023-01-13T05:12:57.943Z,98028.59
2023-01-13T05:15:42.937Z,98020.09
2023-01-13T05:18:10.026Z,98008.13
2023-01-13T05:20:36.820Z,98019.59
2023-01-13T05:23:22.057Z,98012.59
2023-01-13T05:25:49.044Z,98008.75
2023-01-13T05:28:16.107Z,98009.75
2023-01-13T05:30:46.134Z,98011.06
2023-01-13T05:33:16.164Z,98012.75
2023-01-13T05:35:45.057Z,98035.66
2023-01-13T05:38:12.399Z,98039.13
2023-01-13T05:40:59.490Z,98042.72
2023-01-13T05:43:27.000Z,98056.66
2023-01-13T05:45:59.736Z,98059.34
2023-01-13T05:48:32.335Z,98042.91
2023-01-13T05:50:59.516Z,98025.53
2023-01-13T05:53:27.138Z,98008.53
2023-01-13T05:55:54.331Z,98023.53
2023-01-13T05:58:22.507Z,98015.44
2023-01-13T06:00:50.154Z,98038.81
2023-01-13T06:03:20.076Z,98039.66
2023-01-13T06:05:47.699Z,98049.19
2023-01-13T06:08:14.694Z,98053.66
2023-01-13T06:10:41.395Z,98070.34
2023-01-13T06:13:08.020Z,98072.94
2023-01-13T06:15:34.825Z,98078.59
2023-01-13T06:18:05.141Z,98078.69
2023-01-13T06:20:32.207Z,98079.63
2023-01-13T06:22:59.423Z,98089.97
2023-01-13T06:25:50.623Z,98089.97
2023-01-13T06:28:17.331Z,98102.28
2023-01-13T06:30:50.326Z,98105.31
2023-01-13T06:33:22.456Z,98101.78
2023-01-13T06:35:55.264Z,98108.84
2023-01-13T06:38:24.863Z,98112.16
2023-01-13T06:40:51.612Z,98105.06
2023-01-13T06:43:18.246Z,98090.91
2023-01-13T06:45:49.377Z,98102.28
2023-01-13T06:48:16.521Z,98107.69
2023-01-13T06:50:43.292Z,98108.59
2023-01-13T06:53:10.452Z,98109.94
2023-01-13T06:55:37.382Z,98114.94
2023-01-13T06:58:04.188Z,98108.78
2023-01-13T07:00:32.483Z,98126.91
2023-01-13T07:03:13.767Z,98116.63
2023-01-13T07:05:42.115Z,98128.22
2023-01-13T07:08:10.109Z,98108.19
2023-01-13T07:10:37.915Z,98111.69
2023-01-13T07:13:24.426Z,98113.56
2023-01-13T07:15:55.999Z,98122.25
2023-01-13T07:18:22.919Z,98124.00
2023-01-13T07:20:57.902Z,98130.00
2023-01-13T07:23:25.314Z,98141.22
2023-01-13T07:25:51.871Z,98143.16
2023-01-13T07:28:18.458Z,98145.75
2023-01-13T07:30:45.160Z,98136.94
2023-01-13T07:33:11.761Z,98132.69
2023-01-13T07:35:38.650Z,98127.66
2023-01-13T07:38:05.326Z,98135.38
2023-01-13T07:40:31.895Z,98130.31
2023-01-13T07:43:17.123Z,98127.03
2023-01-13T07:45:43.695Z,98145.94
2023-01-13T07:48:10.224Z,98148.38
2023-01-13T07:50:37.055Z,98158.91
2023-01-13T07:53:04.117Z,98161.34
2023-01-13T07:55:30.722Z,98171.72
2023-01-13T07:57:57.341Z,98162.88
2023-01-13T08:00:24.067Z,98153.50
2023-01-13T08:02:50.566Z,98169.28
2023-01-13T08:05:18.113Z,98153.66
2023-01-13T08:07:46.092Z,98169.66
2023-01-13T08:10:12.676Z,98170.66
2023-01-13T08:12:57.808Z,98173.38
2023-01-13T08:15:24.348Z,98176.16
2023-01-13T08:17:50.938Z,98171.00
2023-01-13T08:20:18.678Z,98169.38
2023-01-13T08:22:45.289Z,98181.69
2023-01-13T08:25:11.903Z,98183.53
2023-01-13T08:27:38.599Z,98193.81
2023-01-13T08:30:05.850Z,98193.75
2023-01-13T08:32:32.427Z,98199.66
2023-01-13T08:34:59.023Z,98197.47
2023-01-13T08:37:25.594Z,98201.53
2023-01-13T08:39:52.177Z,98198.00
2023-01-13T08:42:18.821Z,98200.69
2023-01-13T08:44:45.480Z,98209.00
2023-01-13T08:47:12.107Z,98216.72
2023-01-13T08:49:38.843Z,98216.59
2023-01-13T08:52:05.726Z,98225.31
2023-01-13T08:54:32.400Z,98232.34
2023-01-13T08:56:59.241Z,98227.28
2023-01-13T08:59:25.999Z,98226.34
2023-01-13T09:01:52.753Z,98227.19
2023-01-13T09:04:22.898Z,98227.13
2023-01-13T09:06:51.066Z,98243.00
2023-01-13T09:09:18.241Z,98254.41
2023-01-13T09:12:06.967Z,98241.56
2023-01-13T09:14:36.572Z,98236.34
2023-01-13T09:17:04.021Z,98229.69
2023-01-13T09:19:30.737Z,98238.28
2023-01-13T09:21:57.669Z,98235.66
2023-01-13T09:24:25.369Z,98229.75
2023-01-13T09:26:52.492Z,98249.88
2023-01-13T09:29:19.511Z,98265.41
2023-01-13T09:31:46.146Z,98263.47
2023-01-13T09:34:38.407Z,98254.63
2023-01-13T09:37:06.943Z,98279.38
2023-01-13T09:39:35.044Z,98278.03
2023-01-13T09:42:57.977Z,98285.66
2023-01-13T09:45:51.430Z,98275.28
2023-01-13T09:48:32.499Z,98291.81
2023-01-13T09:51:24.780Z,98280.81
2023-01-13T09:53:56.887Z,98291.13
2023-01-13T09:56:25.514Z,98293.34
2023-01-13T09:58:52.831Z,98287.34
2023-01-13T10:01:29.827Z,98294.84
2023-01-13T10:03:56.463Z,98288.53
2023-01-13T10:06:43.655Z,98299.34
2023-01-13T10:09:18.919Z,98298.13
2023-01-13T10:12:06.162Z,98302.66
2023-01-13T10:14:49.717Z,98295.56
2023-01-13T10:17:45.286Z,98305.09
2023-01-13T10:20:26.332Z,98309.09
2023-01-13T10:22:59.004Z,98295.34
2023-01-13T10:25:36.207Z,98310.88
2023-01-13T10:28:10.887Z,98298.56
2023-01-13T10:30:43.563Z,98292.22
2023-01-13T10:33:13.063Z,98303.44
2023-01-13T10:36:00.715Z,98321.06
2023-01-13T10:38:38.645Z,98307.09
2023-01-13T10:41:18.453Z,98307.50
2023-01-13T10:43:51.672Z,98306.75
2023-01-13T10:46:19.562Z,98318.41
2023-01-13T10:48:55.955Z,98326.16
2023-01-13T10:51:22.546Z,98335.38
2023-01-13T10:54:19.207Z,98333.25
2023-01-13T10:56:46.256Z,98322.59
2023-01-13T10:59:14.441Z,98331.91
2023-01-13T11:01:54.819Z,98339.22
2023-01-13T11:04:29.334Z,98333.84
2023-01-13T11:06:57.034Z,98332.63
2023-01-13T11:09:26.022Z,98332.66
2023-01-13T11:11:56.547Z,98331.34
2023-01-13T11:14:41.804Z,98341.00
2023-01-13T11:17:34.707Z,98341.00
2023-01-13T11:20:14.655Z,98341.47
2023-01-13T11:22:47.129Z,98346.53
2023-01-13T11:25:24.352Z,98342.97
2023-01-13T11:28:05.609Z,98344.25
2023-01-13T11:30:32.008Z,98345.66
2023-01-13T11:33:11.179Z,98344.31
2023-01-13T11:36:11.060Z,98342.34
2023-01-13T11:38:53.038Z,98349.97
2023-01-13T11:42:12.501Z,98360.13
2023-01-13T11:44:49.524Z,98336.88
2023-01-13T11:47:21.099Z,98341.50
2023-01-13T11:49:48.684Z,98340.75
2023-01-13T11:52:54.383Z,98341.69
2023-01-13T11:55:39.876Z,98339.25
2023-01-13T11:58:17.723Z,98336.03
2023-01-13T12:01:22.955Z,98344.97
2023-01-13T12:04:25.341Z,98344.56
2023-01-13T12:07:02.188Z,98346.19
2023-01-13T12:09:57.792Z,98345.50
2023-01-13T12:13:02.035Z,98337.28
2023-01-13T12:16:07.814Z,98375.97
2023-01-13T12:18:51.478Z,98349.44
2023-01-13T12:21:21.100Z,98357.72
2023-01-13T12:24:01.049Z,98375.03
2023-01-13T12:26:32.718Z,98369.97
2023-01-13T12:29:13.895Z,98364.53
2023-01-13T12:31:42.861Z,98367.06
2023-01-13T12:34:32.668Z,98357.09
2023-01-13T12:37:21.467Z,98350.47
2023-01-13T12:39:53.894Z,98351.59
2023-01-13T12:42:44.961Z,98357.91
2023-01-13T12:45:11.502Z,98343.78
2023-01-13T12:47:38.186Z,98359.38
2023-01-13T12:50:23.783Z,98361.78
2023-01-13T12:52:54.884Z,98355.97
2023-01-13T12:55:23.943Z,98365.13
2023-01-13T12:58:05.439Z,98356.88
2023-01-13T13:00:40.886Z,98356.19
2023-01-13T13:03:19.274Z,98357.69
2023-01-13T13:05:54.985Z,98353.22
2023-01-13T13:09:15.205Z,98354.19
2023-01-13T13:11:57.920Z,98343.31
2023-01-13T13:14:39.954Z,98360.03
2023-01-13T13:17:28.552Z,98365.38
2023-01-13T13:19:56.844Z,98369.16
2023-01-13T13:22:26.516Z,98371.84
2023-01-13T13:24:56.238Z,98366.53
2023-01-13T13:27:31.880Z,98364.75
2023-01-13T13:29:58.376Z,98366.44
2023-01-13T13:33:02.571Z,98386.28
2023-01-13T13:36:07.436Z,98384.69
2023-01-13T13:39:33.906Z,98380.78
2023-01-13T13:42:36.166Z,98383.94
2023-01-13T13:45:30.148Z,98380.22
2023-01-13T13:47:56.727Z,98387.06
2023-01-13T13:50:23.831Z,98403.63
2023-01-13T13:53:05.303Z,98407.47
2023-01-13T13:55:32.746Z,98406.72
2023-01-13T13:58:01.509Z,98419.44
2023-01-13T14:00:35.631Z,98420.44
2023-01-13T14:03:05.972Z,98416.25
2023-01-13T14:05:34.450Z,98423.63
2023-01-13T14:08:15.632Z,98426.09
2023-01-13T14:10:46.108Z,98429.63
2023-01-13T14:13:23.116Z,98425.41
2023-01-13T14:15:56.324Z,98427.25
2023-01-13T14:18:23.700Z,98431.03
2023-01-13T14:20:54.649Z,98432.06
2023-01-13T14:23:26.217Z,98439.41
2023-01-13T14:25:53.698Z,98442.31
2023-01-13T14:28:32.462Z,98438.13
2023-01-13T14:31:00.138Z,98438.34
2023-01-13T14:34:31.441Z,98432.19
2023-01-13T14:36:54.852Z,98437.19
2023-01-13T14:39:26.098Z,98452.19
2023-01-13T14:41:53.557Z,98449.50
2023-01-13T14:44:29.586Z,98450.44
2023-01-13T14:46:58.956Z,98444.75
2023-01-13T14:49:36.098Z,98456.06
2023-01-13T14:52:16.412Z,98458.59
2023-01-13T14:54:47.269Z,98464.00
2023-01-13T14:57:33.572Z,98475.38
2023-01-13T15:00:08.107Z,98481.31
2023-01-13T15:02:50.313Z,98491.69
2023-01-13T15:05:16.847Z,98501.22
2023-01-13T15:07:59.243Z,98498.94
2023-01-13T15:10:29.761Z,98511.31
2023-01-13T15:12:59.473Z,98507.28
2023-01-13T15:15:34.809Z,98514.81
2023-01-13T15:18:05.725Z,98519.81
2023-01-13T15:20:32.318Z,98521.13
2023-01-13T15:22:59.713Z,98538.97
2023-01-13T15:25:32.817Z,98548.88
2023-01-13T15:27:59.429Z,98545.50
2023-01-13T15:30:27.621Z,98541.56
2023-01-13T15:32:55.835Z,98535.91
2023-01-13T15:35:25.638Z,98546.50
2023-01-13T15:37:54.522Z,98546.66
2023-01-13T15:40:31.774Z,98549.63
2023-01-13T15:43:16.912Z,98562.06
2023-01-13T15:46:02.676Z,98566.72
2023-01-13T15:48:33.060Z,98561.06
2023-01-13T15:51:02.385Z,98563.69
2023-01-13T15:53:29.767Z,98571.66
2023-01-13T15:55:58.503Z,98571.09
2023-01-13T15:58:28.395Z,98571.91
2023-01-13T16:00:55.628Z,98573.94
2023-01-13T16:03:22.575Z,98577.47
2023-01-13T16:05:49.215Z,98587.25
2023-01-13T16:08:16.744Z,98585.47
2023-01-13T16:10:44.879Z,98591.59
2023-01-13T16:13:13.280Z,98599.78
2023-01-13T16:15:44.359Z,98599.72
2023-01-13T16:18:17.462Z,98603.28
2023-01-13T16:20:44.291Z,98612.97
2023-01-13T16:23:11.772Z,98618.22
2023-01-13T16:25:39.055Z,98619.09
2023-01-13T16:28:05.630Z,98632.19
2023-01-13T16:30:37.154Z,98626.97
2023-01-13T16:33:04.149Z,98632.97
2023-01-13T16:35:35.304Z,98640.63
2023-01-13T16:38:01.772Z,98636.25
2023-01-13T16:40:36.626Z,98643.09
2023-01-13T16:43:04.475Z,98645.66
2023-01-13T16:45:31.730Z,98654.22
2023-01-13T16:47:58.404Z,98655.00
2023-01-13T16:50:51.296Z,98661.31
2023-01-13T16:53:18.404Z,98670.97
2023-01-13T16:55:45.221Z,98681.28
2023-01-13T16:58:18.404Z,98685.69
2023-01-13T17:00:48.826Z,98691.78
2023-01-13T17:03:16.438Z,98690.09
2023-01-13T17:05:45.346Z,98699.69
2023-01-13T17:08:18.019Z,98709.19
2023-01-13T17:10:48.011Z,98690.09
2023-01-13T17:13:17.061Z,98707.59
2023-01-13T17:15:45.228Z,98713.81
2023-01-13T17:18:13.457Z,98719.25
2023-01-13T17:20:40.239Z,98709.88
2023-01-13T17:23:06.825Z,98715.22
2023-01-13T17:25:33.411Z,98717.09
2023-01-13T17:27:59.924Z,98723.25
2023-01-13T17:30:26.492Z,98721.50
2023-01-13T17:32:53.104Z,98729.56
2023-01-13T17:35:24.564Z,98729.69
2023-01-13T17:37:54.605Z,98735.03
2023-01-13T17:40:21.300Z,98737.75
2023-01-13T17:42:47.960Z,98741.34
2023-01-13T17:45:14.538Z,98738.84
2023-01-13T17:47:41.073Z,98743.16
2023-01-13T17:50:08.205Z,98742.25
2023-01-13T17:52:35.002Z,98741.47
2023-01-13T17:55:01.568Z,98751.13
2023-01-13T17:57:28.226Z,98757.13
2023-01-13T17:59:55.014Z,98761.47
2023-01-13T18:02:21.750Z,98761.47
2023-01-13T18:04:48.386Z,98765.00
2023-01-13T18:07:14.911Z,98760.88
2023-01-13T18:09:41.464Z,98761.97
2023-01-13T18:12:08.080Z,98754.94
2023-01-13T18:14:34.990Z,98747.28
2023-01-13T18:17:01.634Z,98756.03
2023-01-13T18:19:47.206Z,98756.03
2023-01-13T18:22:32.846Z,98769.19
2023-01-13T18:25:18.164Z,98766.50
2023-01-13T18:27:44.888Z,98771.66
2023-01-13T18:30:13.842Z,98776.94
2023-01-13T18:32:40.758Z,98777.69
2023-01-13T18:35:10.441Z,98779.41
2023-01-13T18:37:40.245Z,98785.50
2023-01-13T18:40:09.251Z,98795.81
2023-01-13T18:42:51.794Z,98801.78
2023-01-13T18:45:24.368Z,98809.44
2023-01-13T18:47:51.684Z,98819.00
2023-01-13T18:50:18.871Z,98822.47
2023-01-13T18:52:45.500Z,98827.69
2023-01-13T18:55:12.148Z,98812.94
2023-01-13T18:57:41.521Z,98824.22
2023-01-13T19:00:10.304Z,98824.28
2023-01-13T19:02:37.209Z,98838.34
2023-01-13T19:05:03.959Z,98826.28
2023-01-13T19:07:31.934Z,98828.81
2023-01-13T19:09:59.612Z,98829.59
2023-01-13T19:12:27.494Z,98840.16
2023-01-13T19:14:55.436Z,98841.81
2023-01-13T19:17:23.809Z,98847.06
2023-01-13T19:19:53.685Z,98839.25
2023-01-13T19:22:27.389Z,98848.09
2023-01-13T19:24:54.148Z,98848.28
2023-01-13T19:27:21.765Z,98851.88
2023-01-13T19:29:52.484Z,98856.09
2023-01-13T19:32:22.031Z,98850.59
2023-01-13T19:34:50.853Z,98856.56
2023-01-13T19:37:18.693Z,98858.41
2023-01-13T19:39:45.341Z,98867.41
2023-01-13T19:42:31.104Z,98865.56
2023-01-13T19:45:30.212Z,98874.06
2023-01-13T19:47:59.329Z,98880.72
2023-01-13T19:50:25.981Z,98876.19
2023-01-13T19:52:52.717Z,98881.31
2023-01-13T19:55:19.837Z,98886.66
2023-01-13T19:57:46.616Z,98898.84
2023-01-13T20:00:17.048Z,98903.91
2023-01-13T20:02:49.536Z,98900.34
2023-01-13T20:05:21.178Z,98912.59
2023-01-13T20:07:49.963Z,98916.81
2023-01-13T20:10:18.127Z,98919.28
2023-01-13T20:12:44.634Z,98929.72
2023-01-13T20:15:11.563Z,98928.00
2023-01-13T20:17:38.255Z,98932.41
2023-01-13T20:20:05.136Z,98928.19
2023-01-13T20:22:31.712Z,98921.84
2023-01-13T20:24:58.273Z,98924.56
2023-01-13T20:27:24.878Z,98922.00
2023-01-13T20:29:51.501Z,98929.84
2023-01-13T20:32:18.142Z,98933.41
2023-01-13T20:34:44.812Z,98932.59
2023-01-13T20:37:11.371Z,98934.31
2023-01-13T20:39:38.002Z,98926.34
2023-01-13T20:42:23.368Z,98937.50
2023-01-13T20:44:49.974Z,98935.72
2023-01-13T20:47:16.579Z,98944.59
2023-01-13T20:49:43.161Z,98947.06
2023-01-13T20:52:10.629Z,98936.72
2023-01-13T20:54:38.232Z,98940.03
2023-01-13T20:57:06.551Z,98948.78
2023-01-13T20:59:33.606Z,98952.28
2023-01-13T21:02:00.182Z,98948.72
2023-01-13T21:04:27.322Z,98947.97
2023-01-13T21:06:54.818Z,98948.16
2023-01-13T21:09:23.312Z,98955.06
2023-01-13T21:12:09.430Z,98949.00
2023-01-13T21:14:54.620Z,98946.44
2023-01-13T21:17:40.208Z,98954.28
2023-01-13T21:20:09.105Z,98955.06
2023-01-13T21:22:35.978Z,98952.44
2023-01-13T21:25:04.595Z,98957.78
2023-01-13T21:27:31.845Z,98969.09
2023-01-13T21:29:58.367Z,98952.41
2023-01-13T21:32:24.948Z,98956.03
2023-01-13T21:34:51.900Z,98960.34
2023-01-13T21:37:18.666Z,98977.03
2023-01-13T21:39:45.676Z,98976.06
2023-01-13T21:42:34.367Z,98978.63
2023-01-13T21:45:20.149Z,98978.56
2023-01-13T21:47:49.643Z,98976.84
2023-01-13T21:50:19.213Z,98978.63
2023-01-13T21:52:46.736Z,98991.84
2023-01-13T21:55:17.194Z,98992.59
2023-01-13T21:57:48.449Z,98996.09
2023-01-13T22:00:17.252Z,99000.41
2023-01-13T22:02:44.385Z,99002.94
2023-01-13T22:05:13.046Z,98998.63
2023-01-13T22:07:40.357Z,99003.97
2023-01-13T22:10:10.221Z,99001.44
2023-01-13T22:12:37.477Z,98991.00
2023-01-13T22:15:04.737Z,99001.44
2023-01-13T22:17:34.249Z,98995.47
2023-01-13T22:20:01.443Z,98995.47
2023-01-13T22:22:29.232Z,98997.28
2023-01-13T22:24:55.805Z,98997.22
2023-01-13T22:27:26.334Z,98987.69
2023-01-13T22:29:53.269Z,98988.59
2023-01-13T22:32:20.829Z,98991.88
2023-01-13T22:34:47.917Z,98997.09
2023-01-13T22:37:14.818Z,99009.19
2023-01-13T22:39:41.323Z,99008.44
2023-01-13T22:42:08.141Z,98999.63
2023-01-13T22:44:34.765Z,98996.94
2023-01-13T22:47:01.363Z,98999.78
2023-01-13T22:49:27.931Z,99003.22
2023-01-13T22:51:54.562Z,98998.88
2023-01-13T22:54:21.140Z,99005.78
2023-01-13T22:56:47.703Z,99009.25
2023-01-13T22:59:14.678Z,99015.47
2023-01-13T23:01:42.236Z,99013.78
2023-01-13T23:04:12.413Z,98995.41
2023-01-13T23:06:39.539Z,98997.16
2023-01-13T23:09:06.284Z,99011.00
2023-01-13T23:11:32.912Z,99002.28
2023-01-13T23:14:01.811Z,99004.84
2023-01-13T23:16:29.869Z,99007.38
2023-01-13T23:18:56.682Z,99000.44
2023-01-13T23:21:29.794Z,99009.19
2023-01-13T23:23:58.581Z,99009.34
2023-01-13T23:26:26.454Z,99004.25
2023-01-13T23:28:53.030Z,99007.59
2023-01-13T23:31:22.101Z,99003.28
2023-01-13T23:33:48.945Z,99005.91
2023-01-13T23:36:18.828Z,99024.16
2023-01-13T23:38:46.209Z,99020.69
2023-01-13T23:41:15.605Z,99035.56
2023-01-13T23:43:42.474Z,99031.25
2023-01-13T23:46:12.503Z,99017.34
2023-01-13T23:48:39.348Z,99017.41
2023-01-13T23:51:10.222Z,99006.06
2023-01-13T23:53:40.439Z,99000.09
2023-01-13T23:56:10.383Z,98987.22
2023-01-13T23:58:36.967Z,98991.63
